Terminal Aerodrome Forecast
Issued by NWS Upton, NY

Home | Current Version | Previous Version | Text Only | Print | Product List | Glossary On
Versions: 1 2 3 4 5 6 7 8 9 10 11 12 13 14 15 16 17 18 19 20 21 22 23 24 25 26 27 28 29 30 31 32
318
FTUS41 KOKX 270250 AAA
TAFLGA
TAF AMD
KLGA 270250Z 2703/2724 19007KT P6SM SCT150 SCT250
     FM270600 18005KT P6SM SCT070 BKN120
     FM270800 18005KT 6SM HZ VCSH BKN060
     FM271300 18007KT P6SM SCT060 SCT100
     FM271800 19012KT P6SM SCT100 SCT250
     FM272000 18014KT P6SM SCT100 SCT250=

USA.gov is the U.S. government's official web portal to all federal, state and local government web resources and services.